Time;durP1;ratioP1;P1;durP2;ratioP2;P2;SDS_P1;SDS_P2;PMS_P1;PMS_P2;Temp;Humidity;BMP_temperature;BMP_pressure;BME280_temperature;BME280_humidity;BME280_pressure;Samples;Min_cycle;Max_cycle;Signal;HPM_P1;HPM_P2
2023/10/02 00:01:58;;;;;;;13.33;11.93;;;22.30;99.90;;;;;;5071160;28;20439;-63
2023/10/02 00:04:26;;;;;;;14.50;13.00;;;22.20;99.90;;;;;;5071360;28;20463;-63
2023/10/02 00:07:06;;;;;;;13.00;11.70;;;22.20;99.90;;;;;;5071341;28;20446;-63
2023/10/02 00:09:34;;;;;;;12.70;11.50;;;22.20;99.90;;;;;;5071157;28;20822;-63
2023/10/02 00:12:01;;;;;;;12.60;11.47;;;22.20;99.90;;;;;;5058876;28;20994;-63
2023/10/02 00:14:35;;;;;;;14.70;12.37;;;22.20;99.90;;;;;;5071163;28;20436;-63
2023/10/02 00:17:07;;;;;;;12.67;11.50;;;22.20;99.90;;;;;;5071223;28;20818;-63
2023/10/02 00:19:37;;;;;;;13.23;11.57;;;22.10;99.90;;;;;;5071336;28;20456;-63
2023/10/02 00:22:06;;;;;;;12.97;11.87;;;22.10;99.90;;;;;;5071311;28;20471;-63
2023/10/02 00:24:37;;;;;;;12.13;11.13;;;22.10;99.90;;;;;;5071013;28;20860;-63
2023/10/02 00:27:04;;;;;;;13.53;12.20;;;22.10;99.90;;;;;;5071135;28;20446;-63
2023/10/02 00:29:32;;;;;;;12.60;11.50;;;22.10;99.90;;;;;;5070882;28;20490;-63
2023/10/02 00:32:00;;;;;;;11.90;11.10;;;22.10;99.90;;;;;;5071135;28;20514;-63
2023/10/02 00:34:36;;;;;;;12.17;11.03;;;22.00;99.90;;;;;;5070914;28;20439;-63
2023/10/02 00:37:12;;;;;;;13.77;12.47;;;22.00;99.90;;;;;;5071128;28;20637;-63
2023/10/02 00:39:40;;;;;;;11.37;10.40;;;22.00;99.90;;;;;;5063497;28;20510;-63
2023/10/02 00:42:15;;;;;;;13.70;12.60;;;21.90;99.90;;;;;;5070945;28;20497;-63
2023/10/02 00:47:38;;;;;;;12.80;11.60;;;21.90;99.90;;;;;;5072754;28;20508;-63
2023/10/02 00:50:16;;;;;;;12.57;11.37;;;21.90;99.90;;;;;;5074890;28;20486;-63
2023/10/02 00:52:52;;;;;;;12.50;11.27;;;21.90;99.90;;;;;;5070991;28;21048;-62
2023/10/02 00:55:21;;;;;;;13.53;12.30;;;21.90;99.90;;;;;;5076863;28;20441;-63
2023/10/02 00:57:51;;;;;;;13.60;12.20;;;21.90;99.90;;;;;;5074849;28;20431;-63
2023/10/02 01:00:30;;;;;;;11.97;11.00;;;21.90;99.90;;;;;;5074265;28;20463;-63
2023/10/02 01:02:58;;;;;;;13.47;12.17;;;21.90;99.90;;;;;;5074465;28;20446;-63
2023/10/02 01:05:31;;;;;;;13.63;12.40;;;21.90;99.90;;;;;;5074471;28;20557;-63
2023/10/02 01:08:00;;;;;;;12.70;10.77;;;21.80;99.90;;;;;;5074754;28;20470;-63
2023/10/02 01:10:30;;;;;;;15.43;14.00;;;21.90;99.90;;;;;;5074634;28;20475;-63
2023/10/02 01:13:01;;;;;;;13.73;12.50;;;21.80;99.90;;;;;;5074366;28;20447;-63
2023/10/02 01:15:29;;;;;;;11.90;10.90;;;21.80;99.90;;;;;;5074461;28;20837;-63
2023/10/02 01:18:18;;;;;;;19.43;12.23;;;21.80;99.90;;;;;;5074713;28;20475;-63
2023/10/02 01:20:48;;;;;;;11.73;10.77;;;21.80;99.90;;;;;;5074387;28;20833;-63
2023/10/02 01:23:22;;;;;;;13.27;12.13;;;21.80;99.90;;;;;;5074172;28;20489;-63
2023/10/02 01:25:50;;;;;;;15.83;14.53;;;21.80;99.90;;;;;;5074295;28;20483;-63
2023/10/02 01:28:25;;;;;;;12.70;11.60;;;21.80;99.90;;;;;;5074191;28;20470;-63
2023/10/02 01:30:55;;;;;;;14.33;13.00;;;21.80;99.90;;;;;;5064584;23;20834;-66
2023/10/02 01:33:26;;;;;;;16.80;13.03;;;21.70;99.90;;;;;;5031889;28;20794;-66
2023/10/02 01:35:56;;;;;;;11.50;10.40;;;21.70;99.90;;;;;;5034018;28;20812;-66
2023/10/02 01:38:30;;;;;;;13.47;12.17;;;21.70;99.90;;;;;;5033983;28;20866;-66
2023/10/02 01:41:06;;;;;;;12.30;11.20;;;21.70;99.90;;;;;;5033582;28;20469;-66
2023/10/02 01:43:39;;;;;;;14.40;12.90;;;21.70;99.90;;;;;;5033572;28;20944;-66
2023/10/02 01:46:06;;;;;;;13.90;12.50;;;21.70;99.90;;;;;;5033912;28;20535;-66
2023/10/02 01:48:37;;;;;;;13.93;12.60;;;21.70;99.90;;;;;;5033794;28;20445;-66
2023/10/02 01:51:20;;;;;;;12.97;11.87;;;21.70;99.90;;;;;;5033466;28;20538;-66
2023/10/02 01:53:48;;;;;;;12.83;11.53;;;21.70;99.90;;;;;;5026464;28;20967;-66
2023/10/02 01:56:17;;;;;;;13.07;12.00;;;21.70;99.90;;;;;;5033648;28;20445;-66
2023/10/02 01:58:48;;;;;;;14.07;12.67;;;21.70;99.90;;;;;;5033345;28;20824;-66
2023/10/02 02:01:14;;;;;;;13.23;12.23;;;21.70;99.90;;;;;;5032970;28;20469;-65
2023/10/02 02:03:42;;;;;;;12.67;11.63;;;21.70;99.90;;;;;;5033305;28;20473;-66
2023/10/02 02:06:09;;;;;;;13.53;10.87;;;21.60;99.90;;;;;;5033462;28;20509;-65
2023/10/02 02:08:37;;;;;;;14.17;12.97;;;21.60;99.90;;;;;;5033134;28;20441;-65
2023/10/02 02:11:18;;;;;;;13.43;12.23;;;21.60;99.90;;;;;;5028790;28;20501;-65
2023/10/02 02:13:48;;;;;;;13.00;12.10;;;21.60;99.90;;;;;;5017958;28;20437;-65
2023/10/02 02:16:22;;;;;;;14.50;11.17;;;21.60;99.90;;;;;;5033102;28;20473;-65
2023/10/02 02:18:50;;;;;;;13.23;11.83;;;21.60;99.90;;;;;;5033045;28;20473;-65
2023/10/02 02:21:18;;;;;;;13.60;12.20;;;21.60;99.90;;;;;;5032844;28;20514;-65
2023/10/02 02:23:46;;;;;;;14.10;12.77;;;21.60;99.90;;;;;;5032945;28;20952;-65
2023/10/02 02:26:21;;;;;;;12.40;11.40;;;21.60;99.90;;;;;;5032826;28;20481;-65
2023/10/02 02:28:54;;;;;;;12.97;11.67;;;21.60;99.90;;;;;;5032834;28;20440;-66
2023/10/02 02:31:30;;;;;;;11.47;10.47;;;21.60;99.90;;;;;;5032653;28;20480;-66
2023/10/02 02:33:59;;;;;;;13.20;12.10;;;21.50;99.90;;;;;;5032967;28;20441;-66
2023/10/02 02:36:27;;;;;;;12.20;10.90;;;21.50;99.90;;;;;;5032682;28;20940;-65
2023/10/02 02:39:15;;;;;;;13.17;11.43;;;21.50;99.90;;;;;;5032527;28;20539;-66
2023/10/02 02:41:42;;;;;;;14.87;12.33;;;21.60;99.90;;;;;;5024905;28;20461;-66
2023/10/02 02:44:29;;;;;;;12.70;11.43;;;21.50;99.90;;;;;;5032703;28;20476;-66
2023/10/02 02:46:56;;;;;;;13.97;12.67;;;21.50;99.90;;;;;;5026876;28;20560;-66
2023/10/02 02:49:25;;;;;;;13.87;11.53;;;21.50;99.90;;;;;;5032429;28;20492;-66
2023/10/02 02:51:55;;;;;;;13.03;10.97;;;21.50;99.90;;;;;;5032271;28;20552;-66
2023/10/02 02:54:25;;;;;;;13.53;12.23;;;21.50;99.90;;;;;;5032383;28;20450;-66
2023/10/02 02:56:56;;;;;;;12.47;11.27;;;21.50;99.90;;;;;;5032376;28;20964;-66
2023/10/02 02:59:27;;;;;;;12.80;11.80;;;21.50;99.90;;;;;;5032194;28;20887;-66
2023/10/02 03:02:08;;;;;;;15.63;14.17;;;21.40;99.90;;;;;;5032263;28;20437;-66
2023/10/02 03:04:36;;;;;;;14.00;12.60;;;21.40;99.90;;;;;;5032103;28;21016;-66
2023/10/02 03:07:09;;;;;;;13.93;12.60;;;21.40;99.90;;;;;;5031409;28;20481;-66
2023/10/02 03:09:36;;;;;;;13.43;12.17;;;21.40;99.90;;;;;;5032018;28;20441;-66
2023/10/02 03:12:05;;;;;;;14.13;12.70;;;21.40;99.90;;;;;;5031958;28;20469;-65
2023/10/02 03:14:34;;;;;;;14.20;12.90;;;21.40;99.90;;;;;;5032042;28;20449;-66
2023/10/02 03:17:22;;;;;;;14.30;13.00;;;21.40;99.90;;;;;;5031877;28;20442;-66
2023/10/02 03:19:49;;;;;;;12.53;11.53;;;21.40;99.90;;;;;;5025205;28;20483;-66
2023/10/02 03:22:20;;;;;;;12.93;11.83;;;21.40;99.90;;;;;;5031619;28;20886;-66
2023/10/02 03:24:48;;;;;;;12.03;11.07;;;21.40;99.90;;;;;;5031881;28;20880;-66
2023/10/02 03:27:15;;;;;;;13.83;12.60;;;21.40;99.90;;;;;;5031696;28;20512;-66
2023/10/02 03:29:45;;;;;;;13.57;12.37;;;21.40;99.90;;;;;;5031729;28;20858;-66
2023/10/02 03:32:12;;;;;;;13.20;11.97;;;21.30;99.90;;;;;;5031780;28;20445;-66
2023/10/02 03:34:48;;;;;;;14.03;12.93;;;21.30;99.90;;;;;;5031562;28;20445;-66
2023/10/02 03:37:21;;;;;;;14.70;13.50;;;21.40;99.90;;;;;;5031680;28;20447;-66
2023/10/02 03:40:00;;;;;;;14.53;12.87;;;21.30;99.90;;;;;;5031743;28;20461;-66
2023/10/02 03:42:31;;;;;;;14.83;13.43;;;21.30;99.90;;;;;;5031361;28;20441;-66
2023/10/02 03:45:00;;;;;;;16.07;14.57;;;21.30;99.90;;;;;;5031343;28;20457;-66
2023/10/02 03:47:30;;;;;;;15.53;13.97;;;21.30;99.90;;;;;;5031186;28;20481;-66
2023/10/02 03:50:01;;;;;;;13.70;12.70;;;21.30;99.90;;;;;;5031598;28;20979;-66
2023/10/02 03:52:30;;;;;;;12.63;11.43;;;21.30;99.90;;;;;;5031337;28;20503;-66
2023/10/02 03:54:57;;;;;;;13.63;12.40;;;21.30;99.90;;;;;;5031234;28;20453;-66
2023/10/02 03:57:47;;;;;;;13.97;12.60;;;21.30;99.90;;;;;;5031263;28;20469;-66
2023/10/02 04:00:19;;;;;;;14.53;13.50;;;21.30;99.90;;;;;;5031545;28;20484;-66
2023/10/02 04:02:46;;;;;;;14.17;12.93;;;21.30;99.90;;;;;;5031252;28;20986;-66
2023/10/02 04:05:30;;;;;;;14.53;13.33;;;21.20;99.90;;;;;;5031213;28;20944;-68
2023/10/02 04:08:12;;;;;;;13.20;12.20;;;21.30;99.90;;;;;;5025549;28;20440;-68
2023/10/02 04:10:51;;;;;;;16.67;15.37;;;21.20;99.90;;;;;;5031399;28;20545;-68
2023/10/02 04:13:18;;;;;;;15.10;13.80;;;21.30;99.90;;;;;;5031119;28;20445;-68
2023/10/02 04:15:46;;;;;;;15.07;13.83;;;21.30;99.90;;;;;;5031194;28;20437;-68
2023/10/02 04:18:45;;;;;;;17.87;16.23;;;21.20;99.90;;;;;;5034601;28;20802;-68
2023/10/02 04:21:09;;;;;;;15.33;14.03;;;21.30;99.90;;;;;;5029721;28;20824;-68
2023/10/02 04:23:40;;;;;;;14.50;13.20;;;21.20;99.90;;;;;;5035173;28;20487;-68
2023/10/02 04:26:07;;;;;;;17.33;14.93;;;21.20;99.90;;;;;;5034964;28;20484;-68
2023/10/02 04:28:49;;;;;;;14.80;13.60;;;21.20;99.90;;;;;;5035204;28;20500;-68
2023/10/02 04:31:22;;;;;;;15.73;14.13;;;21.20;99.90;;;;;;5034960;28;20534;-68
2023/10/02 04:34:06;;;;;;;16.07;14.60;;;21.20;99.90;;;;;;5027807;28;20616;-68
2023/10/02 04:36:34;;;;;;;15.00;13.57;;;21.20;99.90;;;;;;5034832;28;20453;-68
2023/10/02 04:39:04;;;;;;;13.83;12.67;;;21.20;99.90;;;;;;5035089;28;20942;-68
2023/10/02 04:41:37;;;;;;;15.07;13.67;;;21.20;99.90;;;;;;5034820;28;20495;-68
2023/10/02 04:44:04;;;;;;;13.97;12.60;;;21.20;99.90;;;;;;5034937;28;20441;-68
2023/10/02 04:46:33;;;;;;;16.23;14.60;;;21.20;99.90;;;;;;5034510;28;20487;-67
2023/10/02 04:49:00;;;;;;;16.90;14.90;;;21.30;99.90;;;;;;5035149;28;20855;-68
2023/10/02 04:51:28;;;;;;;16.63;15.10;;;21.20;99.90;;;;;;5034625;28;20504;-68
2023/10/02 04:53:58;;;;;;;21.70;15.70;;;21.30;99.90;;;;;;5034767;28;20514;-68
2023/10/02 04:56:26;;;;;;;20.90;16.07;;;21.30;99.90;;;;;;5032200;28;20445;-68
2023/10/02 04:58:57;;;;;;;39.07;17.50;;;21.40;99.90;;;;;;5034838;28;20453;-68
2023/10/02 05:01:25;;;;;;;17.70;15.83;;;21.40;99.90;;;;;;5034411;28;20465;-68
2023/10/02 05:03:53;;;;;;;19.20;15.60;;;21.40;99.90;;;;;;5034210;28;20528;-69
2023/10/02 05:09:25;;;;;;;20.47;14.33;;;21.40;99.90;;;;;;5034708;28;20495;-69
2023/10/02 05:11:52;;;;;;;19.40;14.90;;;21.30;99.90;;;;;;5027092;28;20986;-70
2023/10/02 05:14:26;;;;;;;18.60;15.67;;;21.40;99.90;;;;;;5033257;28;20445;-69
2023/10/02 05:16:53;;;;;;;15.43;13.80;;;21.30;99.90;;;;;;5033104;28;20449;-69
2023/10/02 05:19:54;;;;;;;17.20;15.50;;;21.40;99.90;;;;;;5034079;28;20480;-69
2023/10/02 05:22:08;;;;;;;17.63;15.93;;;21.40;99.90;;;;;;5033834;28;20464;-69
2023/10/02 05:24:34;;;;;;;18.80;16.60;;;21.40;99.90;;;;;;5034015;28;20475;-69
2023/10/02 05:27:04;;;;;;;16.97;15.30;;;21.40;99.90;;;;;;5034063;28;21073;-69
2023/10/02 05:32:19;;;;;;;15.83;14.20;;;21.40;99.90;;;;;;5033566;28;20468;-69
2023/10/02 05:35:03;;;;;;;18.60;15.30;;;21.40;99.90;;;;;;5026081;28;20452;-69
2023/10/02 05:37:32;;;;;;;16.93;15.20;;;21.40;99.90;;;;;;5033880;28;20447;-69
2023/10/02 05:42:49;;;;;;;17.30;15.70;;;21.40;99.90;;;;;;5032450;28;20437;-69
2023/10/02 05:45:17;;;;;;;15.77;14.47;;;21.40;99.90;;;;;;5033798;28;20515;-69
2023/10/02 05:47:46;;;;;;;17.77;15.80;;;21.40;99.90;;;;;;5033477;28;20481;-69
2023/10/02 05:50:15;;;;;;;17.33;15.93;;;21.40;99.90;;;;;;5033614;28;20976;-69
2023/10/02 05:52:48;;;;;;;18.03;16.60;;;21.40;99.90;;;;;;5033223;28;20460;-69
2023/10/02 05:55:17;;;;;;;16.93;15.53;;;21.40;99.90;;;;;;5033583;28;20959;-69
2023/10/02 05:57:45;;;;;;;15.77;14.60;;;21.40;99.90;;;;;;5033289;28;20445;-69
2023/10/02 06:00:17;;;;;;;16.80;15.23;;;21.40;99.90;;;;;;5033489;28;20465;-69
2023/10/02 06:02:57;;;;;;;16.23;14.67;;;21.40;99.90;;;;;;5033149;28;20442;-69
2023/10/02 06:05:26;;;;;;;17.17;15.87;;;21.40;99.90;;;;;;5033240;28;20441;-69
2023/10/02 06:07:52;;;;;;;16.43;15.03;;;21.40;99.90;;;;;;5033191;28;20873;-69
2023/10/02 06:10:25;;;;;;;15.87;14.20;;;21.40;99.90;;;;;;5033300;28;20914;-69
2023/10/02 06:12:57;;;;;;;17.37;15.87;;;21.40;99.90;;;;;;5025750;28;20520;-69
2023/10/02 06:18:05;;;;;;;17.77;16.23;;;21.40;99.90;;;;;;5032256;28;20448;-70
2023/10/02 06:20:34;;;;;;;17.57;15.83;;;21.40;99.90;;;;;;5032902;28;20491;-69
2023/10/02 06:23:19;;;;;;;16.67;15.07;;;21.40;99.90;;;;;;5032802;28;20866;-69
2023/10/02 06:25:46;;;;;;;18.17;16.63;;;21.40;99.90;;;;;;5032966;28;20451;-69
2023/10/02 06:28:23;;;;;;;19.17;17.37;;;21.40;99.90;;;;;;5032870;28;20480;-70
2023/10/02 06:30:51;;;;;;;17.27;15.67;;;21.40;99.90;;;;;;5025236;28;20999;-69
2023/10/02 06:33:21;;;;;;;17.00;15.50;;;21.50;99.90;;;;;;5032574;28;20507;-69
2023/10/02 06:35:56;;;;;;;17.63;16.30;;;21.40;99.90;;;;;;5032820;28;20445;-69
2023/10/02 06:38:23;;;;;;;15.70;14.40;;;21.40;99.90;;;;;;5032571;28;20522;-69
2023/10/02 06:40:56;;;;;;;19.93;18.33;;;21.40;99.90;;;;;;5031574;28;20980;-69
2023/10/02 06:43:29;;;;;;;16.17;14.83;;;21.40;99.90;;;;;;5032451;28;20444;-69
2023/10/02 06:46:06;;;;;;;17.70;16.23;;;21.40;99.90;;;;;;5032706;28;20442;-69
2023/10/02 06:48:34;;;;;;;18.30;16.40;;;21.40;99.90;;;;;;5032455;28;20440;-69
2023/10/02 06:51:04;;;;;;;15.00;13.97;;;21.40;99.90;;;;;;5032329;28;20496;-69
2023/10/02 06:53:30;;;;;;;18.47;16.97;;;21.40;99.90;;;;;;5032006;28;20473;-69
2023/10/02 06:56:06;;;;;;;16.43;14.77;;;21.40;99.90;;;;;;5032343;28;20959;-69
2023/10/02 06:58:46;;;;;;;17.07;15.77;;;21.40;99.90;;;;;;5032234;28;20859;-69
2023/10/02 07:01:14;;;;;;;16.80;15.50;;;21.40;99.90;;;;;;5032255;28;20457;-69
2023/10/02 07:03:50;;;;;;;18.43;16.90;;;21.40;99.90;;;;;;5031950;28;20990;-69
2023/10/02 07:06:19;;;;;;;16.60;15.47;;;21.40;99.90;;;;;;5032016;28;20440;-69
2023/10/02 07:08:47;;;;;;;15.37;14.20;;;21.40;99.90;;;;;;5032165;28;20437;-69
2023/10/02 07:11:16;;;;;;;18.73;17.33;;;21.50;99.90;;;;;;5031936;28;21022;-69
2023/10/02 07:13:56;;;;;;;15.00;13.77;;;21.40;99.90;;;;;;5031902;28;20817;-69
2023/10/02 07:16:24;;;;;;;16.03;14.73;;;21.40;99.90;;;;;;5031851;28;20445;-69
2023/10/02 07:18:53;;;;;;;16.13;14.60;;;21.40;99.90;;;;;;5031956;28;20453;-69
2023/10/02 07:21:22;;;;;;;15.47;14.37;;;21.40;99.90;;;;;;5031791;28;20527;-69
2023/10/02 07:23:49;;;;;;;14.97;13.77;;;21.40;99.90;;;;;;5023703;28;20444;-70
2023/10/02 07:26:19;;;;;;;16.80;15.50;;;21.40;99.90;;;;;;5031860;28;20495;-69
2023/10/02 07:28:51;;;;;;;15.80;14.70;;;21.40;99.90;;;;;;5031683;28;20909;-70
2023/10/02 07:31:18;;;;;;;16.30;14.90;;;21.50;99.90;;;;;;5055141;22;20489;-65
2023/10/02 07:33:45;;;;;;;15.53;14.53;;;21.50;99.90;;;;;;5031492;28;20477;-65
2023/10/02 07:36:15;;;;;;;17.00;15.63;;;21.50;99.90;;;;;;5031624;28;20457;-65
2023/10/02 07:38:46;;;;;;;16.20;15.10;;;21.50;99.90;;;;;;5031495;28;20528;-65
2023/10/02 07:41:16;;;;;;;17.90;16.57;;;21.50;99.90;;;;;;5024712;28;20497;-65
2023/10/02 07:43:44;;;;;;;15.23;14.23;;;21.50;99.90;;;;;;5022428;28;20587;-64
2023/10/02 07:46:15;;;;;;;15.63;14.53;;;21.50;99.90;;;;;;5023421;28;20445;-65
2023/10/02 07:48:57;;;;;;;16.53;15.43;;;21.50;99.90;;;;;;5020725;28;20502;-65
2023/10/02 07:51:30;;;;;;;17.70;15.90;;;21.50;99.90;;;;;;5019192;28;20993;-65
2023/10/02 07:53:59;;;;;;;16.97;15.77;;;21.50;99.90;;;;;;5023325;28;20815;-65
2023/10/02 07:56:27;;;;;;;16.37;15.13;;;21.50;99.90;;;;;;5022904;28;21003;-65
2023/10/02 07:58:55;;;;;;;14.93;13.87;;;21.50;99.90;;;;;;5019786;28;20479;-65
2023/10/02 08:01:23;;;;;;;16.17;14.97;;;21.50;99.90;;;;;;5019629;28;20462;-65
2023/10/02 08:03:52;;;;;;;15.23;13.97;;;21.50;99.90;;;;;;5019641;28;20446;-65
2023/10/02 08:06:21;;;;;;;14.60;13.50;;;21.50;99.90;;;;;;5019717;28;20480;-65
2023/10/02 08:09:24;;;;;;;16.43;15.33;;;21.50;99.90;;;;;;5022677;28;20483;-65
2023/10/02 08:11:38;;;;;;;16.07;15.03;;;21.50;99.90;;;;;;5021064;28;21002;-65
2023/10/02 08:14:05;;;;;;;16.00;15.07;;;21.50;99.90;;;;;;5019697;28;20457;-65
2023/10/02 08:16:58;;;;;;;15.90;14.87;;;21.50;99.90;;;;;;5020610;28;20446;-65
2023/10/02 08:19:20;;;;;;;16.93;15.40;;;21.50;99.90;;;;;;5022847;28;20437;-65
2023/10/02 08:21:47;;;;;;;16.13;14.93;;;21.50;99.90;;;;;;5019511;28;20516;-65
2023/10/02 08:24:14;;;;;;;15.43;14.37;;;21.50;99.90;;;;;;5019505;28;20446;-65
2023/10/02 08:26:44;;;;;;;15.60;14.63;;;21.50;99.90;;;;;;5021479;28;20456;-65
2023/10/02 08:29:13;;;;;;;16.80;15.40;;;21.50;99.90;;;;;;5022965;28;20972;-65
2023/10/02 08:31:44;;;;;;;17.20;16.00;;;21.50;99.90;;;;;;5020341;28;20469;-65
2023/10/02 08:34:12;;;;;;;17.67;16.63;;;21.50;99.90;;;;;;5019575;28;20815;-65
2023/10/02 08:36:40;;;;;;;15.90;14.90;;;21.50;99.90;;;;;;5021323;28;20446;-65
2023/10/02 08:39:08;;;;;;;15.53;14.30;;;21.50;99.90;;;;;;5022699;28;20831;-65
2023/10/02 08:41:43;;;;;;;15.70;14.57;;;21.50;99.90;;;;;;5021095;28;20499;-65
2023/10/02 08:44:13;;;;;;;15.80;14.73;;;21.60;99.90;;;;;;5019459;28;20887;-65
2023/10/02 08:46:42;;;;;;;16.20;15.17;;;21.60;99.90;;;;;;5020990;28;20456;-65
2023/10/02 08:49:11;;;;;;;16.70;15.50;;;21.60;99.90;;;;;;5022660;28;20445;-64
2023/10/02 08:51:39;;;;;;;15.73;14.70;;;21.60;99.90;;;;;;5020551;28;20518;-64
2023/10/02 08:54:07;;;;;;;16.90;15.60;;;21.60;99.90;;;;;;5019414;28;20453;-65
2023/10/02 08:56:44;;;;;;;15.70;14.43;;;21.60;99.90;;;;;;5020267;28;20477;-65
2023/10/02 08:59:18;;;;;;;15.50;14.50;;;21.60;99.90;;;;;;5022727;28;20537;-65
2023/10/02 09:01:48;;;;;;;16.80;15.50;;;21.60;99.90;;;;;;5019792;28;20464;-64
2023/10/02 09:04:28;;;;;;;16.30;14.93;;;21.60;99.90;;;;;;5020643;28;20803;-65
2023/10/02 09:06:59;;;;;;;15.60;14.47;;;21.60;99.90;;;;;;5015160;28;20442;-65
2023/10/02 09:09:35;;;;;;;16.20;15.10;;;21.60;99.90;;;;;;5022753;28;20442;-65
2023/10/02 09:12:03;;;;;;;17.97;16.57;;;21.60;99.90;;;;;;5015931;28;20840;-65
2023/10/02 09:14:42;;;;;;;16.83;15.53;;;21.60;99.90;;;;;;5023090;28;20525;-65
2023/10/02 09:17:22;;;;;;;14.20;13.30;;;21.60;99.90;;;;;;5026050;28;20524;-65
2023/10/02 09:20:00;;;;;;;17.50;16.20;;;21.70;99.90;;;;;;5022862;28;20445;-65
2023/10/02 09:22:28;;;;;;;19.77;17.90;;;21.70;99.90;;;;;;5022508;28;20915;-65
2023/10/02 09:25:09;;;;;;;17.90;16.53;;;21.70;99.90;;;;;;5014988;28;20452;-65
2023/10/02 09:27:41;;;;;;;17.90;16.50;;;21.70;99.90;;;;;;5023623;28;20846;-65
2023/10/02 09:30:18;;;;;;;16.60;14.70;;;21.70;99.90;;;;;;5025653;28;20445;-65
2023/10/02 09:32:50;;;;;;;16.43;15.13;;;21.70;99.90;;;;;;5023169;28;20441;-65
2023/10/02 09:35:29;;;;;;;16.87;15.60;;;21.70;99.90;;;;;;5022304;28;20449;-65
2023/10/02 09:38:02;;;;;;;15.90;14.80;;;21.70;99.90;;;;;;5014788;28;20464;-65
2023/10/02 09:40:53;;;;;;;17.57;15.73;;;21.70;99.90;;;;;;5022298;28;20528;-65
2023/10/02 09:43:20;;;;;;;16.93;15.63;;;21.70;99.90;;;;;;5025417;28;20924;-65
2023/10/02 09:45:53;;;;;;;16.30;15.27;;;21.70;99.90;;;;;;5022730;28;20477;-65
2023/10/02 09:51:19;;;;;;;18.10;16.70;;;21.80;99.90;;;;;;5016537;28;20816;-65
2023/10/02 09:54:04;;;;;;;15.57;14.67;;;21.80;99.90;;;;;;5024292;28;20445;-64
2023/10/02 09:56:51;;;;;;;16.93;15.50;;;21.70;99.90;;;;;;5024756;28;20449;-65
2023/10/02 09:59:21;;;;;;;17.60;16.30;;;21.80;99.90;;;;;;5021971;28;20870;-66
2023/10/02 10:05:45;;;;;;;16.77;15.67;;;21.80;99.90;;;;;;4933085;29;20472;-66
2023/10/02 10:08:19;;;;;;;15.87;14.20;;;21.80;99.90;;;;;;4935904;29;20484;-65
2023/10/02 10:10:50;;;;;;;15.40;14.40;;;21.80;99.90;;;;;;5014870;28;20474;-65
2023/10/02 10:13:27;;;;;;;15.80;14.83;;;21.80;99.90;;;;;;5024951;28;20437;-65
2023/10/02 10:16:31;;;;;;;15.07;13.97;;;21.80;99.90;;;;;;5013201;28;20445;-65
2023/10/02 10:19:27;;;;;;;14.10;13.30;;;21.80;99.90;;;;;;5013929;28;20470;-65
2023/10/02 10:21:56;;;;;;;15.83;14.73;;;21.80;99.90;;;;;;5013127;28;20451;-65
2023/10/02 10:24:56;;;;;;;15.37;14.17;;;21.80;99.90;;;;;;5021457;28;20939;-65
2023/10/02 10:27:58;;;;;;;17.50;16.17;;;21.80;99.90;;;;;;5009523;28;20485;-65
2023/10/02 10:30:38;;;;;;;15.90;14.70;;;21.80;99.90;;;;;;5017274;28;20531;-65
2023/10/02 10:33:40;;;;;;;14.07;13.10;;;21.80;99.90;;;;;;5014397;28;20450;-65
2023/10/02 10:36:37;;;;;;;13.73;12.87;;;21.80;99.90;;;;;;5014758;28;21023;-65
2023/10/02 10:39:35;;;;;;;17.83;16.40;;;21.80;99.90;;;;;;5014208;28;20430;-65
2023/10/02 10:42:03;;;;;;;17.77;16.57;;;21.80;99.90;;;;;;5000574;28;20912;-66
2023/10/02 10:44:33;;;;;;;16.87;15.60;;;21.90;99.90;;;;;;5024289;28;20816;-65
2023/10/02 10:47:03;;;;;;;17.20;15.97;;;21.90;99.90;;;;;;5020967;28;20434;-65
2023/10/02 10:50:11;;;;;;;15.43;14.40;;;21.90;99.90;;;;;;5020888;28;20908;-66
2023/10/02 10:52:44;;;;;;;16.20;15.00;;;21.90;99.90;;;;;;5022915;28;20445;-65
2023/10/02 10:55:36;;;;;;;16.13;15.03;;;21.90;99.90;;;;;;5020817;28;20446;-65
2023/10/02 10:58:03;;;;;;;18.33;17.03;;;21.80;99.90;;;;;;5013754;28;21219;-66
2023/10/02 11:00:35;;;;;;;14.97;14.07;;;21.90;99.90;;;;;;5020646;28;20469;-65
2023/10/02 11:03:10;;;;;;;15.77;14.50;;;21.90;99.90;;;;;;5013225;28;20960;-65
2023/10/02 11:05:38;;;;;;;16.00;14.90;;;21.90;99.90;;;;;;5021665;28;20802;-65
2023/10/02 11:08:23;;;;;;;16.80;15.60;;;21.90;99.90;;;;;;5024003;28;20959;-65
2023/10/02 11:11:01;;;;;;;16.57;15.67;;;21.90;99.90;;;;;;5021194;28;20817;-66
2023/10/02 11:13:29;;;;;;;17.50;16.13;;;21.90;99.90;;;;;;5020360;28;20828;-65
2023/10/02 11:16:07;;;;;;;16.80;15.60;;;21.90;99.90;;;;;;5020544;28;20929;-65
2023/10/02 11:18:39;;;;;;;17.70;15.97;;;22.00;99.90;;;;;;5020909;28;20848;-65
2023/10/02 11:21:23;;;;;;;16.90;15.70;;;22.00;99.90;;;;;;5023655;28;20467;-65
2023/10/02 11:23:55;;;;;;;15.50;14.43;;;22.00;99.90;;;;;;5020929;28;20480;-66
2023/10/02 11:26:23;;;;;;;18.57;16.80;;;22.00;99.90;;;;;;5019776;28;20442;-66
2023/10/02 11:28:50;;;;;;;16.30;15.00;;;22.00;99.90;;;;;;5022691;28;20516;-65
2023/10/02 11:31:32;;;;;;;16.40;15.20;;;22.00;99.90;;;;;;5023325;28;20825;-65
2023/10/02 11:34:03;;;;;;;15.43;14.07;;;22.00;99.90;;;;;;5012414;28;20477;-65
2023/10/02 11:36:34;;;;;;;16.63;15.20;;;22.00;99.90;;;;;;5020322;28;20477;-65
2023/10/02 11:39:09;;;;;;;15.80;14.50;;;22.10;99.90;;;;;;5012555;28;20453;-66
2023/10/02 11:41:40;;;;;;;14.67;13.63;;;22.10;99.90;;;;;;5020197;28;20461;-65
2023/10/02 11:44:11;;;;;;;17.57;16.37;;;22.10;99.90;;;;;;5023421;28;20480;-65
2023/10/02 11:46:37;;;;;;;16.47;15.37;;;22.10;99.90;;;;;;5022569;28;20448;-66
2023/10/02 11:49:04;;;;;;;15.30;14.10;;;22.10;99.90;;;;;;5019742;28;20514;-65
2023/10/02 11:51:33;;;;;;;16.87;15.37;;;22.10;99.90;;;;;;5019643;28;20897;-65
2023/10/02 11:54:01;;;;;;;18.00;16.60;;;22.10;99.90;;;;;;5012099;28;20502;-65
2023/10/02 11:56:29;;;;;;;17.90;16.50;;;22.20;99.90;;;;;;5019836;28;20438;-66
2023/10/02 11:58:57;;;;;;;16.23;15.00;;;22.20;99.90;;;;;;5022800;28;20471;-65
2023/10/02 12:01:26;;;;;;;18.03;16.53;;;22.10;99.90;;;;;;5022960;28;20519;-65
2023/10/02 12:03:56;;;;;;;15.30;14.10;;;22.20;99.90;;;;;;5020078;28;20446;-65
2023/10/02 12:06:25;;;;;;;16.57;15.37;;;22.20;99.90;;;;;;5019814;28;20504;-65
2023/10/02 12:08:56;;;;;;;17.73;16.33;;;22.20;99.90;;;;;;5021996;28;20565;-65
2023/10/02 12:11:24;;;;;;;15.97;14.47;;;22.20;99.90;;;;;;5023187;28;20943;-65
2023/10/02 12:13:53;;;;;;;16.53;15.23;;;22.20;99.90;;;;;;5020409;28;20445;-66
2023/10/02 12:16:21;;;;;;;15.40;14.30;;;22.20;99.90;;;;;;5019668;28;20478;-65
2023/10/02 12:18:49;;;;;;;16.70;15.20;;;22.20;99.90;;;;;;5021577;28;20917;-65
2023/10/02 12:21:16;;;;;;;17.50;16.00;;;22.20;99.90;;;;;;5022808;28;20489;-65
2023/10/02 12:23:44;;;;;;;17.37;16.00;;;22.30;99.90;;;;;;5021263;28;20561;-65
2023/10/02 12:26:14;;;;;;;17.50;15.97;;;22.30;99.90;;;;;;5019572;28;20438;-65
2023/10/02 12:28:42;;;;;;;15.43;14.33;;;22.30;99.90;;;;;;5020286;28;20513;-65
2023/10/02 12:31:13;;;;;;;16.00;14.60;;;22.30;99.90;;;;;;5022639;28;20500;-65
2023/10/02 12:33:41;;;;;;;16.70;15.53;;;22.30;99.90;;;;;;5021790;28;20448;-65
2023/10/02 12:36:12;;;;;;;19.00;17.17;;;22.30;99.90;;;;;;5019484;28;20820;-65
2023/10/02 12:38:41;;;;;;;17.60;16.20;;;22.30;99.90;;;;;;5022217;28;20819;-65
2023/10/02 12:41:15;;;;;;;17.37;15.93;;;22.30;99.90;;;;;;5026576;28;20461;-65
2023/10/02 12:43:43;;;;;;;15.47;14.40;;;22.30;99.90;;;;;;5025316;28;20469;-65
2023/10/02 12:46:14;;;;;;;18.00;16.60;;;22.30;99.90;;;;;;5023139;28;20446;-65
2023/10/02 12:48:42;;;;;;;16.03;14.63;;;22.30;99.90;;;;;;5023938;28;20481;-65
2023/10/02 12:51:09;;;;;;;17.20;15.80;;;22.30;99.90;;;;;;5026425;28;20954;-65
2023/10/02 12:53:37;;;;;;;18.60;16.77;;;22.30;99.90;;;;;;5025976;28;20449;-65
2023/10/02 12:56:05;;;;;;;17.53;16.13;;;22.30;99.90;;;;;;5022972;28;20436;-65
2023/10/02 12:58:32;;;;;;;18.20;16.60;;;22.30;99.90;;;;;;5022874;28;20442;-65
2023/10/02 13:01:00;;;;;;;19.10;17.10;;;22.40;99.90;;;;;;5026047;28;20893;-65
2023/10/02 13:03:29;;;;;;;17.23;15.50;;;22.30;99.90;;;;;;5026116;28;20484;-65
2023/10/02 13:05:57;;;;;;;17.20;15.93;;;22.40;99.90;;;;;;5023309;28;20473;-65
2023/10/02 13:08:25;;;;;;;16.10;14.90;;;22.40;99.90;;;;;;5022779;28;20933;-66
2023/10/02 13:10:52;;;;;;;15.63;14.43;;;22.40;99.90;;;;;;5025142;28;20466;-65
2023/10/02 13:13:19;;;;;;;16.87;15.67;;;22.40;99.90;;;;;;5026050;28;20695;-65
2023/10/02 13:15:48;;;;;;;16.50;15.00;;;22.40;99.90;;;;;;5024595;28;20473;-65